Time;durP1;ratioP1;P1;durP2;ratioP2;P2;SDS_P1;SDS_P2;PMS_P1;PMS_P2;Temp;Humidity;BMP_temperature;BMP_pressure;BME280_temperature;BME280_humidity;BME280_pressure;Samples;Min_cycle;Max_cycle;Signal;HPM_P1;HPM_P2
2023/03/08 00:01:21;;;;;;;5.10;2.50;;;;;;;3.17;95.35;97502.71;101206;295;22572;-33
2023/03/08 00:03:50;;;;;;;11.00;5.00;;;;;;;3.02;96.44;97507.48;101222;295;26847;-30
2023/03/08 00:06:16;;;;;;;10.10;5.20;;;;;;;2.72;99.58;97514.13;101325;295;22573;-29
2023/03/08 00:08:42;;;;;;;9.30;5.30;;;;;;;2.39;100.00;97514.17;101215;295;25407;-33
2023/03/08 00:11:09;;;;;;;7.10;5.50;;;;;;;2.22;100.00;97516.98;101333;295;25785;-29
2023/03/08 00:13:35;;;;;;;8.60;4.30;;;;;;;2.07;100.00;97518.31;101222;295;25408;-30
2023/03/08 00:16:02;;;;;;;10.40;5.10;;;;;;;2.02;100.00;97523.49;101222;295;22698;-30
2023/03/08 00:18:28;;;;;;;12.80;6.10;;;;;;;1.96;100.00;97526.15;101201;295;26876;-32
2023/03/08 00:21:01;;;;;;;8.60;5.40;;;;;;;1.90;100.00;97523.95;101339;295;26831;-29
2023/03/08 00:23:27;;;;;;;4.80;3.40;;;;;;;-76.05;39.40;39010.36;99279;295;1003301;-33
2023/03/08 00:25:53;;;;;;;10.60;6.60;;;;;;;-128.00;-1.00;-1.00;97698;295;1004444;-33
2023/03/08 00:28:18;;;;;;;5.50;3.30;;;;;;;-128.00;-1.00;-1.00;97766;295;1004345;-31
2023/03/08 00:30:44;;;;;;;8.00;5.30;;;;;;;-128.00;-1.00;-1.00;97836;295;1004659;-29
2023/03/08 00:33:10;;;;;;;5.30;3.50;;;;;;;-128.00;-1.00;-1.00;97836;295;1005590;-30
2023/03/08 00:35:36;;;;;;;7.70;5.30;;;;;;;-128.00;-1.00;-1.00;97815;295;1005470;-32
2023/03/08 00:38:02;;;;;;;6.70;4.90;;;;;;;-128.00;-1.00;-1.00;97693;295;1004977;-30
2023/03/08 00:40:27;;;;;;;10.70;5.90;;;;;;;-128.00;-1.00;-1.00;97584;297;1004871;-30
2023/03/08 00:42:53;;;;;;;11.20;5.30;;;;;;;-128.00;-1.00;-1.00;97816;295;1005933;-30
2023/03/08 00:45:19;;;;;;;17.40;6.30;;;;;;;-128.00;-1.00;-1.00;97906;284;1004962;-31
2023/03/08 00:47:45;;;;;;;12.20;6.50;;;;;;;-128.00;-1.00;-1.00;97718;288;1005987;-33
2023/03/08 00:50:11;;;;;;;10.90;5.70;;;;;;;-128.00;-1.00;-1.00;97821;295;1005814;-37
2023/03/08 00:52:37;;;;;;;7.40;5.20;;;;;;;-128.00;-1.00;-1.00;97630;295;1005191;-35
2023/03/08 00:55:03;;;;;;;20.90;6.00;;;;;;;-128.00;-1.00;-1.00;97732;295;1006166;-32
2023/03/08 00:57:30;;;;;;;8.30;5.30;;;;;;;-128.00;-1.00;-1.00;97760;295;1004279;-30
2023/03/08 00:59:56;;;;;;;11.00;5.70;;;;;;;-128.00;-1.00;-1.00;97761;295;1005143;-37
2023/03/08 01:02:22;;;;;;;10.80;4.90;;;;;;;-128.00;-1.00;-1.00;97629;295;1005644;-31
2023/03/08 01:04:48;;;;;;;11.10;5.60;;;;;;;-128.00;-1.00;-1.00;97656;297;1005223;-33
2023/03/08 01:07:14;;;;;;;11.70;5.00;;;;;;;-128.00;-1.00;-1.00;97837;295;1004690;-31
2023/03/08 01:09:40;;;;;;;9.20;5.30;;;;;;;-128.00;-1.00;-1.00;97698;295;1005607;-34
2023/03/08 01:12:05;;;;;;;8.10;4.40;;;;;;;-128.00;-1.00;-1.00;97653;295;1004406;-34
2023/03/08 01:14:31;;;;;;;9.30;4.80;;;;;;;-128.00;-1.00;-1.00;97708;295;1005484;-36
2023/03/08 01:16:57;;;;;;;6.90;4.30;;;;;;;-128.00;-1.00;-1.00;97678;297;1005160;-32
2023/03/08 01:19:23;;;;;;;10.10;4.90;;;;;;;-128.00;-1.00;-1.00;97731;295;1004304;-32
2023/03/08 01:21:48;;;;;;;7.30;4.50;;;;;;;-128.00;-1.00;-1.00;97736;295;1005772;-32
2023/03/08 01:24:14;;;;;;;12.10;5.70;;;;;;;-128.00;-1.00;-1.00;97655;284;1005706;-36
2023/03/08 01:26:40;;;;;;;8.50;4.50;;;;;;;-128.00;-1.00;-1.00;97748;295;1005726;-37
2023/03/08 01:29:06;;;;;;;10.00;5.10;;;;;;;-128.00;-1.00;-1.00;97676;295;1005246;-36
2023/03/08 01:31:31;;;;;;;7.40;2.90;;;;;;;-128.00;-1.00;-1.00;97599;295;1004390;-34
2023/03/08 01:33:57;;;;;;;8.00;4.30;;;;;;;-128.00;-1.00;-1.00;97765;295;1004300;-37
2023/03/08 01:36:24;;;;;;;10.10;5.40;;;;;;;-128.00;-1.00;-1.00;97604;296;1005218;-35
2023/03/08 01:38:50;;;;;;;12.20;6.40;;;;;;;-128.00;-1.00;-1.00;97750;295;1004309;-36
2023/03/08 01:41:28;;;;;;;7.50;4.20;;;;;;;-128.00;-1.00;-1.00;97566;295;1004553;-37
2023/03/08 01:43:54;;;;;;;8.10;4.50;;;;;;;-128.00;-1.00;-1.00;97690;295;1005461;-31
2023/03/08 01:46:28;;;;;;;11.90;7.30;;;;;;;-128.00;-1.00;-1.00;97662;284;1004772;-35
2023/03/08 01:49:06;;;;;;;11.90;7.30;;;;;;;-128.00;-1.00;-1.00;97658;295;1005933;-34
2023/03/08 01:51:39;;;;;;;9.60;5.90;;;;;;;-128.00;-1.00;-1.00;97694;295;1004627;-34
2023/03/08 01:54:08;;;;;;;8.70;4.90;;;;;;;-128.00;-1.00;-1.00;97709;295;1005002;-33
2023/03/08 01:56:34;;;;;;;12.60;7.30;;;;;;;-128.00;-1.00;-1.00;97815;295;1005834;-36
2023/03/08 01:59:00;;;;;;;10.70;6.60;;;;;;;-128.00;-1.00;-1.00;97736;295;1005327;-33
2023/03/08 02:01:26;;;;;;;11.80;6.80;;;;;;;-128.00;-1.00;-1.00;97046;297;1004336;-32
2023/03/08 02:03:51;;;;;;;10.60;5.80;;;;;;;-128.00;-1.00;-1.00;97828;295;1003894;-36
2023/03/08 02:06:20;;;;;;;15.60;6.20;;;;;;;-128.00;-1.00;-1.00;96505;295;1005304;-32
2023/03/08 02:08:46;;;;;;;9.60;5.70;;;;;;;-128.00;-1.00;-1.00;97832;295;1005410;-36
2023/03/08 02:11:11;;;;;;;8.50;5.60;;;;;;;-128.00;-1.00;-1.00;97823;295;1004735;-36
2023/03/08 02:13:38;;;;;;;8.90;5.30;;;;;;;-128.00;-1.00;-1.00;97789;284;1003062;-35
2023/03/08 02:16:05;;;;;;;5.50;4.00;;;;;;;-128.00;-1.00;-1.00;97913;295;1004588;-32
2023/03/08 02:18:31;;;;;;;7.20;5.00;;;;;;;-128.00;-1.00;-1.00;96505;295;1003484;-41
2023/03/08 02:20:56;;;;;;;8.80;4.90;;;;;;;-128.00;-1.00;-1.00;97236;295;1003677;-35
2023/03/08 02:23:24;;;;;;;5.90;3.60;;;;;;;-128.00;-1.00;-1.00;96465;295;1003030;-33
2023/03/08 02:25:57;;;;;;;6.10;3.60;;;;;;;-128.00;-1.00;-1.00;96491;295;1004020;-33
2023/03/08 02:28:24;;;;;;;5.40;3.90;;;;;;;-128.00;-1.00;-1.00;95858;288;1003657;-31
2023/03/08 02:30:50;;;;;;;4.60;2.70;;;;;;;-128.00;-1.00;-1.00;94308;288;1004448;-35
2023/03/08 02:33:16;;;;;;;8.10;4.40;;;;;;;-128.00;-1.00;-1.00;96443;295;1004187;-31
2023/03/08 02:35:43;;;;;;;12.10;4.40;;;;;;;-128.00;-1.00;-1.00;94335;292;1003193;-32
2023/03/08 02:38:10;;;;;;;9.30;5.20;;;;;;;-128.00;-1.00;-1.00;95085;295;1003497;-33
2023/03/08 02:40:36;;;;;;;7.00;3.90;;;;;;;-128.00;-1.00;-1.00;97601;295;1005408;-31
2023/03/08 02:43:02;;;;;;;5.50;3.60;;;;;;;-128.00;-1.00;-1.00;97669;295;1004998;-35
2023/03/08 02:45:28;;;;;;;9.40;4.20;;;;;;;-128.00;-1.00;-1.00;97670;297;1003683;-35
2023/03/08 02:47:54;;;;;;;8.00;4.30;;;;;;;-128.00;-1.00;-1.00;97889;295;1003600;-34
2023/03/08 02:50:20;;;;;;;5.90;4.20;;;;;;;-128.00;-1.00;-1.00;97732;295;1003491;-34
2023/03/08 02:52:46;;;;;;;7.50;4.40;;;;;;;-128.00;-1.00;-1.00;97881;295;1003685;-35
2023/03/08 02:55:11;;;;;;;4.60;3.30;;;;;;;-128.00;-1.00;-1.00;95725;295;1003652;-33
2023/03/08 02:57:37;;;;;;;5.50;3.60;;;;;;;-128.00;-1.00;-1.00;96384;286;1004295;-35
2023/03/08 03:00:03;;;;;;;5.60;3.90;;;;;;;-128.00;-1.00;-1.00;95007;295;1003849;-33
2023/03/08 03:02:32;;;;;;;5.50;4.30;;;;;;;-128.00;-1.00;-1.00;95726;295;1003888;-31
2023/03/08 03:04:57;;;;;;;5.00;3.40;;;;;;;-128.00;-1.00;-1.00;94294;296;1004769;-35
2023/03/08 03:07:23;;;;;;;6.20;3.50;;;;;;;-128.00;-1.00;-1.00;94426;288;2003322;-37
2023/03/08 03:09:49;;;;;;;6.20;3.70;;;;;;;-128.00;-1.00;-1.00;95143;295;2004284;-35
2023/03/08 03:12:15;;;;;;;7.10;2.90;;;;;;;-128.00;-1.00;-1.00;97885;295;1003666;-34
2023/03/08 03:14:41;;;;;;;6.80;3.60;;;;;;;-128.00;-1.00;-1.00;97759;295;1005669;-31
2023/03/08 03:17:06;;;;;;;11.20;5.50;;;;;;;-128.00;-1.00;-1.00;97756;295;1003453;-31
2023/03/08 03:19:32;;;;;;;5.30;4.20;;;;;;;-128.00;-1.00;-1.00;97755;288;1004150;-35
2023/03/08 03:21:58;;;;;;;5.30;3.10;;;;;;;-128.00;-1.00;-1.00;97809;295;1004589;-33
2023/03/08 03:24:24;;;;;;;7.90;5.00;;;;;;;-128.00;-1.00;-1.00;97102;295;1005444;-37
2023/03/08 03:26:50;;;;;;;5.40;4.30;;;;;;;-128.00;-1.00;-1.00;97816;295;1003596;-33
2023/03/08 03:29:16;;;;;;;6.30;3.70;;;;;;;-128.00;-1.00;-1.00;97720;295;1004481;-36
2023/03/08 03:31:42;;;;;;;7.20;4.00;;;;;;;-128.00;-1.00;-1.00;97631;295;1005171;-36
2023/03/08 03:34:08;;;;;;;7.30;3.70;;;;;;;-128.00;-1.00;-1.00;97638;295;1005933;-35
2023/03/08 03:36:34;;;;;;;13.30;4.00;;;;;;;-128.00;-1.00;-1.00;97576;295;1005229;-32
2023/03/08 03:38:59;;;;;;;4.30;2.30;;;;;;;-128.00;-1.00;-1.00;97705;296;1004633;-31
2023/03/08 03:41:25;;;;;;;5.30;3.30;;;;;;;-128.00;-1.00;-1.00;97605;284;1005589;-30
2023/03/08 03:43:51;;;;;;;8.40;5.60;;;;;;;-128.00;-1.00;-1.00;97624;296;1005370;-36
2023/03/08 03:46:18;;;;;;;8.60;4.70;;;;;;;-128.00;-1.00;-1.00;97696;296;1005847;-32
2023/03/08 03:48:44;;;;;;;9.90;6.00;;;;;;;-128.00;-1.00;-1.00;97733;296;1005670;-31
2023/03/08 03:51:14;;;;;;;9.90;3.00;;;;;;;-128.00;-1.00;-1.00;97704;295;1004530;-36
2023/03/08 03:53:40;;;;;;;4.90;3.60;;;;;;;-128.00;-1.00;-1.00;97106;295;1004256;-32
2023/03/08 03:56:22;;;;;;;8.00;4.70;;;;;;;-128.00;-1.00;-1.00;97119;295;1006102;-31
2023/03/08 03:58:48;;;;;;;9.40;4.40;;;;;;;-128.00;-1.00;-1.00;97748;295;1005062;-32
2023/03/08 04:01:20;;;;;;;5.10;2.50;;;;;;;-128.00;-1.00;-1.00;97670;298;1004121;-35
2023/03/08 04:03:46;;;;;;;4.90;2.90;;;;;;;-128.00;-1.00;-1.00;95895;295;1004395;-34
2023/03/08 04:06:20;;;;;;;5.10;3.00;;;;;;;-128.00;-1.00;-1.00;97013;296;1004203;-34
2023/03/08 04:08:47;;;;;;;7.30;3.30;;;;;;;-128.00;-1.00;-1.00;97139;295;1004675;-33
2023/03/08 04:11:15;;;;;;;8.80;3.30;;;;;;;-128.00;-1.00;-1.00;97906;295;1004200;-33
2023/03/08 04:13:41;;;;;;;6.20;3.90;;;;;;;-128.00;-1.00;-1.00;97659;296;1004430;-31
2023/03/08 04:16:12;;;;;;;8.00;3.90;;;;;;;-128.00;-1.00;-1.00;97881;296;1004834;-33
2023/03/08 04:18:38;;;;;;;6.60;3.40;;;;;;;-128.00;-1.00;-1.00;97881;284;1003704;-33
2023/03/08 04:21:04;;;;;;;4.30;2.50;;;;;;;-128.00;-1.00;-1.00;97622;297;1005723;-35
2023/03/08 04:23:30;;;;;;;4.30;3.30;;;;;;;-128.00;-1.00;-1.00;97650;293;1005750;-33
2023/03/08 04:25:56;;;;;;;5.70;3.30;;;;;;;-128.00;-1.00;-1.00;97771;295;1004919;-34
2023/03/08 04:28:21;;;;;;;4.60;2.00;;;;;;;-128.00;-1.00;-1.00;97683;295;1004568;-31
2023/03/08 04:30:47;;;;;;;18.20;2.50;;;;;;;-128.00;-1.00;-1.00;97636;295;1005121;-32
2023/03/08 04:33:13;;;;;;;5.10;2.40;;;;;;;-128.00;-1.00;-1.00;97664;296;1005835;-32
2023/03/08 04:35:39;;;;;;;5.90;2.80;;;;;;;-128.00;-1.00;-1.00;97614;295;1005327;-31
2023/03/08 05:15:10;;;;;;;5.60;3.20;;;;;;;-102.70;19.20;19569.53;98157;282;1544582;-31
2023/03/08 05:17:39;;;;;;;3.90;2.70;;;;;;;-128.00;-1.00;-1.00;97760;295;1330520;-34
2023/03/08 05:20:05;;;;;;;6.60;3.70;;;;;;;-128.00;-1.00;-1.00;97876;294;1002980;-33
2023/03/08 05:22:31;;;;;;;8.20;3.40;;;;;;;-128.00;-1.00;-1.00;97869;294;1003012;-31
2023/03/08 05:24:57;;;;;;;2.30;1.40;;;;;;;-128.00;-1.00;-1.00;97904;294;1002925;-31
2023/03/08 05:27:23;;;;;;;4.40;2.20;;;;;;;-128.00;-1.00;-1.00;97918;294;1003766;-31
2023/03/08 05:29:50;;;;;;;3.40;1.90;;;;;;;-128.00;-1.00;-1.00;98038;294;1004425;-30
2023/03/08 05:32:16;;;;;;;5.60;1.90;;;;;;;-128.00;-1.00;-1.00;97995;294;1004118;-31
2023/03/08 05:34:42;;;;;;;4.20;2.10;;;;;;;-128.00;-1.00;-1.00;97940;294;1004621;-37
2023/03/08 05:37:07;;;;;;;3.90;2.10;;;;;;;-128.00;-1.00;-1.00;97854;284;1003690;-33
2023/03/08 05:39:33;;;;;;;5.50;2.10;;;;;;;-128.00;-1.00;-1.00;97902;294;1003726;-38
2023/03/08 05:41:59;;;;;;;4.00;2.00;;;;;;;-128.00;-1.00;-1.00;97868;294;1003012;-34
2023/03/08 05:44:25;;;;;;;6.70;3.20;;;;;;;-128.00;-1.00;-1.00;97846;294;1004626;-32
2023/03/08 05:46:51;;;;;;;4.70;2.80;;;;;;;-128.00;-1.00;-1.00;97922;294;1005128;-33
2023/03/08 05:49:18;;;;;;;4.50;2.50;;;;;;;-128.00;-1.00;-1.00;97825;294;1002543;-34
2023/03/08 05:51:43;;;;;;;7.90;3.50;;;;;;;-128.00;-1.00;-1.00;97935;294;1004285;-35
2023/03/08 05:54:09;;;;;;;4.30;2.40;;;;;;;-128.00;-1.00;-1.00;97903;296;1002646;-37
2023/03/08 05:56:35;;;;;;;3.40;2.50;;;;;;;-128.00;-1.00;-1.00;97882;294;1005250;-34
2023/03/08 05:59:01;;;;;;;6.90;2.50;;;;;;;-128.00;-1.00;-1.00;98076;294;1003372;-33
2023/03/08 06:01:27;;;;;;;3.60;1.90;;;;;;;-128.00;-1.00;-1.00;98051;294;1002820;-30
2023/03/08 06:03:55;;;;;;;9.40;3.00;;;;;;;-128.00;-1.00;-1.00;97839;296;1003659;-34
2023/03/08 06:06:22;;;;;;;5.90;2.80;;;;;;;-128.00;-1.00;-1.00;97824;284;1004648;-36
2023/03/08 06:08:48;;;;;;;2.60;1.80;;;;;;;-128.00;-1.00;-1.00;97879;294;1002755;-33
2023/03/08 06:11:14;;;;;;;3.90;1.90;;;;;;;-128.00;-1.00;-1.00;97863;294;1003453;-31
2023/03/08 06:13:40;;;;;;;4.10;2.40;;;;;;;-128.00;-1.00;-1.00;97891;294;1003954;-32
2023/03/08 06:16:06;;;;;;;2.50;1.90;;;;;;;-128.00;-1.00;-1.00;97887;295;1004722;-34
2023/03/08 06:18:32;;;;;;;9.30;2.80;;;;;;;-128.00;-1.00;-1.00;97863;285;1003014;-31
2023/03/08 06:21:03;;;;;;;3.10;1.70;;;;;;;-128.00;-1.00;-1.00;97929;295;1005156;-33
2023/03/08 06:23:29;;;;;;;4.20;2.00;;;;;;;-128.00;-1.00;-1.00;97865;284;1002705;-37
2023/03/08 06:25:55;;;;;;;4.30;2.70;;;;;;;-128.00;-1.00;-1.00;97983;288;1003273;-34
2023/03/08 06:28:21;;;;;;;3.70;1.90;;;;;;;-128.00;-1.00;-1.00;97859;295;1004589;-32
2023/03/08 06:30:50;;;;;;;4.90;1.90;;;;;;;-128.00;-1.00;-1.00;97933;295;1003164;-30
2023/03/08 06:33:17;;;;;;;3.30;2.10;;;;;;;-128.00;-1.00;-1.00;97901;295;1002714;-36
2023/03/08 06:35:43;;;;;;;3.10;2.10;;;;;;;-128.00;-1.00;-1.00;97871;296;1003370;-36
2023/03/08 06:38:09;;;;;;;3.80;1.80;;;;;;;-128.00;-1.00;-1.00;97927;295;1003502;-35
2023/03/08 06:40:35;;;;;;;3.40;1.90;;;;;;;-128.00;-1.00;-1.00;97942;295;1003345;-36
2023/03/08 06:43:01;;;;;;;2.00;1.50;;;;;;;-128.00;-1.00;-1.00;98057;295;1004062;-36
2023/03/08 06:45:27;;;;;;;5.20;3.20;;;;;;;-128.00;-1.00;-1.00;97933;295;1002598;-34
2023/03/08 06:47:52;;;;;;;3.50;2.40;;;;;;;-128.00;-1.00;-1.00;97814;295;1003746;-37
2023/03/08 06:50:19;;;;;;;6.00;2.70;;;;;;;-128.00;-1.00;-1.00;97898;295;1003787;-33
2023/03/08 06:52:45;;;;;;;5.20;2.30;;;;;;;-128.00;-1.00;-1.00;97812;285;1003843;-35
2023/03/08 06:55:10;;;;;;;2.80;1.90;;;;;;;-128.00;-1.00;-1.00;97925;295;1003742;-31
2023/03/08 06:57:37;;;;;;;5.90;2.20;;;;;;;-128.00;-1.00;-1.00;97837;295;1004726;-35
2023/03/08 07:00:03;;;;;;;6.30;3.20;;;;;;;-128.00;-1.00;-1.00;97954;295;1003928;-33
2023/03/08 07:02:29;;;;;;;4.00;1.70;;;;;;;-128.00;-1.00;-1.00;97736;295;1003296;-37
2023/03/08 07:04:54;;;;;;;3.80;1.90;;;;;;;-128.00;-1.00;-1.00;97857;295;1003387;-37
2023/03/08 07:07:20;;;;;;;5.40;2.10;;;;;;;-128.00;-1.00;-1.00;97931;295;1003311;-31
2023/03/08 07:09:46;;;;;;;4.10;2.40;;;;;;;-128.00;-1.00;-1.00;97799;295;1003159;-33
2023/03/08 07:12:12;;;;;;;4.90;2.40;;;;;;;-128.00;-1.00;-1.00;97981;295;1002679;-33
2023/03/08 07:14:38;;;;;;;3.40;1.90;;;;;;;-128.00;-1.00;-1.00;98011;295;1004365;-34
2023/03/08 07:17:05;;;;;;;5.70;2.70;;;;;;;-128.00;-1.00;-1.00;97861;295;1004029;-35
2023/03/08 07:19:30;;;;;;;6.10;2.60;;;;;;;-128.00;-1.00;-1.00;97819;295;1003857;-34
2023/03/08 07:21:56;;;;;;;5.10;2.80;;;;;;;-128.00;-1.00;-1.00;97822;295;1004382;-33
2023/03/08 07:24:22;;;;;;;4.20;2.40;;;;;;;-128.00;-1.00;-1.00;97832;295;1003057;-31
2023/03/08 07:26:49;;;;;;;2.50;1.70;;;;;;;-128.00;-1.00;-1.00;97909;295;1002799;-35
2023/03/08 07:29:15;;;;;;;8.10;2.90;;;;;;;-128.00;-1.00;-1.00;97882;295;1002898;-34
2023/03/08 07:31:41;;;;;;;9.30;3.20;;;;;;;-128.00;-1.00;-1.00;97969;295;1003132;-32
2023/03/08 07:34:07;;;;;;;5.80;3.50;;;;;;;-128.00;-1.00;-1.00;97853;285;1002516;-32
2023/03/08 07:36:32;;;;;;;3.40;3.00;;;;;;;-128.00;-1.00;-1.00;97896;296;1003078;-31
2023/03/08 07:38:58;;;;;;;4.90;2.70;;;;;;;-128.00;-1.00;-1.00;97913;295;1003656;-34
2023/03/08 07:41:27;;;;;;;6.30;3.70;;;;;;;-128.00;-1.00;-1.00;97823;295;1004019;-31
2023/03/08 07:43:53;;;;;;;7.30;2.80;;;;;;;-128.00;-1.00;-1.00;97840;295;1002845;-33
2023/03/08 07:46:19;;;;;;;3.20;1.40;;;;;;;-128.00;-1.00;-1.00;97775;295;1003134;-31
2023/03/08 07:48:45;;;;;;;4.80;2.30;;;;;;;-128.00;-1.00;-1.00;97885;295;1003097;-33
2023/03/08 07:51:11;;;;;;;4.50;3.20;;;;;;;-128.00;-1.00;-1.00;97909;295;1003238;-33
2023/03/08 07:53:37;;;;;;;3.30;2.50;;;;;;;-128.00;-1.00;-1.00;97852;295;1003172;-33
2023/03/08 07:56:03;;;;;;;6.10;3.00;;;;;;;-128.00;-1.00;-1.00;97866;295;1002828;-35
2023/03/08 07:58:29;;;;;;;4.30;2.90;;;;;;;-128.00;-1.00;-1.00;97950;295;1004356;-34
2023/03/08 08:00:55;;;;;;;3.90;3.30;;;;;;;-128.00;-1.00;-1.00;97929;295;1003653;-32
2023/03/08 08:03:28;;;;;;;4.90;3.50;;;;;;;-128.00;-1.00;-1.00;97784;295;1004737;-36
2023/03/08 08:05:54;;;;;;;;;;;;;;;-128.00;-1.00;-1.00;97860;285;1004220;-34
2023/03/08 08:08:20;;;;;;;5.20;2.80;;;;;;;-128.00;-1.00;-1.00;97848;295;1003083;-31
2023/03/08 08:10:46;;;;;;;8.30;3.60;;;;;;;-128.00;-1.00;-1.00;97822;295;1003016;-33
2023/03/08 08:13:12;;;;;;;18.20;4.50;;;;;;;-128.00;-1.00;-1.00;97808;295;1002853;-29
2023/03/08 08:15:38;;;;;;;6.00;3.00;;;;;;;-128.00;-1.00;-1.00;97833;295;1003155;-29
2023/03/08 08:18:04;;;;;;;8.40;3.10;;;;;;;-128.00;-1.00;-1.00;97843;295;1003979;-33
2023/03/08 08:20:30;;;;;;;5.80;3.60;;;;;;;-128.00;-1.00;-1.00;97891;295;1003703;-31
2023/03/08 08:22:56;;;;;;;4.20;3.00;;;;;;;-128.00;-1.00;-1.00;97963;295;1004314;-30
2023/03/08 08:25:22;;;;;;;5.10;2.90;;;;;;;-128.00;-1.00;-1.00;97833;295;1003299;-35
2023/03/08 08:27:49;;;;;;;6.40;3.60;;;;;;;-128.00;-1.00;-1.00;97783;295;1003157;-31
2023/03/08 08:30:15;;;;;;;12.40;2.50;;;;;;;-128.00;-1.00;-1.00;97875;295;1002967;-32
2023/03/08 08:32:40;;;;;;;6.50;3.30;;;;;;;-128.00;-1.00;-1.00;97882;285;1003339;-33
2023/03/08 08:35:06;;;;;;;2.80;1.80;;;;;;;-128.00;-1.00;-1.00;97815;295;1003801;-29
2023/03/08 08:37:32;;;;;;;6.70;3.30;;;;;;;-128.00;-1.00;-1.00;97902;283;1003106;-39
2023/03/08 08:39:58;;;;;;;7.90;3.90;;;;;;;-128.00;-1.00;-1.00;97860;295;1003084;-34
2023/03/08 08:42:24;;;;;;;7.00;3.20;;;;;;;-128.00;-1.00;-1.00;97906;296;1004624;-29
2023/03/08 08:44:53;;;;;;;6.70;4.20;;;;;;;-128.00;-1.00;-1.00;97888;295;1003475;-30
2023/03/08 08:47:19;;;;;;;6.30;2.50;;;;;;;-128.00;-1.00;-1.00;97795;295;1003285;-32
2023/03/08 08:49:45;;;;;;;4.20;2.60;;;;;;;-128.00;-1.00;-1.00;97900;295;1003994;-29
2023/03/08 08:52:11;;;;;;;6.20;3.20;;;;;;;-128.00;-1.00;-1.00;97820;295;1003162;-37
2023/03/08 08:54:38;;;;;;;9.10;4.60;;;;;;;-128.00;-1.00;-1.00;97910;295;1003669;-33
2023/03/08 08:57:05;;;;;;;4.60;2.70;;;;;;;-128.00;-1.00;-1.00;97779;295;1002757;-33
2023/03/08 08:59:31;;;;;;;9.20;4.70;;;;;;;-128.00;-1.00;-1.00;97748;287;1002904;-30
2023/03/08 09:01:57;;;;;;;7.60;4.30;;;;;;;-128.00;-1.00;-1.00;97848;285;1003658;-34
2023/03/08 09:04:23;;;;;;;5.10;2.60;;;;;;;-128.00;-1.00;-1.00;97890;295;1003021;-32
2023/03/08 09:06:49;;;;;;;7.70;4.40;;;;;;;-128.00;-1.00;-1.00;97951;295;1003440;-35
2023/03/08 09:09:19;;;;;;;17.80;5.40;;;;;;;-128.00;-1.00;-1.00;97830;295;1003345;-33
2023/03/08 09:11:46;;;;;;;11.60;4.30;;;;;;;-128.00;-1.00;-1.00;97856;295;1003742;-29
2023/03/08 09:14:13;;;;;;;12.00;5.70;;;;;;;-128.00;-1.00;-1.00;97845;295;1004375;-29
2023/03/08 09:16:39;;;;;;;15.00;6.00;;;;;;;-128.00;-1.00;-1.00;97873;295;1003230;-33
2023/03/08 09:19:05;;;;;;;9.20;5.00;;;;;;;-128.00;-1.00;-1.00;97764;295;1004159;-33
2023/03/08 09:21:31;;;;;;;5.40;3.70;;;;;;;-128.00;-1.00;-1.00;97878;295;1004692;-33
2023/03/08 09:24:00;;;;;;;5.30;3.60;;;;;;;-128.00;-1.00;-1.00;97888;285;1003235;-29
2023/03/08 09:26:28;;;;;;;10.80;4.80;;;;;;;-128.00;-1.00;-1.00;97961;295;1003699;-31
2023/03/08 09:28:53;;;;;;;6.90;4.20;;;;;;;-128.00;-1.00;-1.00;97934;295;1004346;-33
2023/03/08 09:31:19;;;;;;;13.40;6.00;;;;;;;-128.00;-1.00;-1.00;97863;295;1004636;-29
2023/03/08 09:33:50;;;;;;;6.40;3.60;;;;;;;-128.00;-1.00;-1.00;97896;295;1003204;-34
2023/03/08 09:36:16;;;;;;;6.70;4.30;;;;;;;-128.00;-1.00;-1.00;97893;295;1002877;-33
2023/03/08 09:38:42;;;;;;;7.30;4.40;;;;;;;-128.00;-1.00;-1.00;97819;295;1003552;-35
2023/03/08 09:41:31;;;;;;;7.50;4.60;;;;;;;-128.00;-1.00;-1.00;97822;295;1002363;-30
2023/03/08 09:44:21;;;;;;;9.80;5.00;;;;;;;-128.00;-1.00;-1.00;97887;284;1003881;-34
2023/03/08 09:46:54;;;;;;;4.30;3.70;;;;;;;-128.00;-1.00;-1.00;97865;295;1002861;-34
2023/03/08 09:49:33;;;;;;;6.70;4.00;;;;;;;-128.00;-1.00;-1.00;97881;296;1003035;-37
2023/03/08 09:52:08;;;;;;;6.60;3.30;;;;;;;-128.00;-1.00;-1.00;97903;295;1003756;-33
2023/03/08 09:54:34;;;;;;;3.20;2.70;;;;;;;-128.00;-1.00;-1.00;97857;295;1002874;-30
2023/03/08 09:57:00;;;;;;;4.60;3.00;;;;;;;-128.00;-1.00;-1.00;97865;295;1003411;-31
2023/03/08 09:59:33;;;;;;;12.60;4.70;;;;;;;-128.00;-1.00;-1.00;97951;295;1004682;-30
2023/03/08 10:02:23;;;;;;;8.80;5.10;;;;;;;-128.00;-1.00;-1.00;97843;285;1003468;-33
2023/03/08 10:05:06;;;;;;;6.50;3.40;;;;;;;-128.00;-1.00;-1.00;97930;284;1003715;-33
2023/03/08 10:07:47;;;;;;;4.20;3.50;;;;;;;-128.00;-1.00;-1.00;97815;287;1003886;-33
2023/03/08 10:10:29;;;;;;;7.40;3.40;;;;;;;-128.00;-1.00;-1.00;97834;295;1002826;-34
2023/03/08 10:13:27;;;;;;;5.40;3.20;;;;;;;-128.00;-1.00;-1.00;97941;295;1003462;-31
2023/03/08 10:16:15;;;;;;;3.00;2.50;;;;;;;-128.00;-1.00;-1.00;97902;285;1003339;-33
2023/03/08 10:18:58;;;;;;;4.80;3.20;;;;;;;-128.00;-1.00;-1.00;98021;295;1003446;-30
2023/03/08 10:21:24;;;;;;;5.00;3.90;;;;;;;-128.00;-1.00;-1.00;97809;295;1002771;-30
2023/03/08 10:24:14;;;;;;;3.80;2.80;;;;;;;-128.00;-1.00;-1.00;97798;295;1003461;-30
2023/03/08 10:26:41;;;;;;;4.60;3.50;;;;;;;-128.00;-1.00;-1.00;97829;295;1003177;-34
2023/03/08 10:29:10;;;;;;;7.30;5.60;;;;;;;-128.00;-1.00;-1.00;97839;295;1003346;-32
2023/03/08 10:31:36;;;;;;;11.10;4.80;;;;;;;-128.00;-1.00;-1.00;97890;295;1002813;-32
2023/03/08 10:34:12;;;;;;;5.80;4.60;;;;;;;-128.00;-1.00;-1.00;97873;295;1003684;-33
2023/03/08 10:36:57;;;;;;;5.00;3.50;;;;;;;-128.00;-1.00;-1.00;97905;295;1003909;-35
2023/03/08 10:39:23;;;;;;;6.90;4.00;;;;;;;-128.00;-1.00;-1.00;97797;295;1003798;-31
2023/03/08 10:41:51;;;;;;;7.60;4.30;;;;;;;-128.00;-1.00;-1.00;97879;295;1003415;-34
2023/03/08 10:44:32;;;;;;;10.70;6.80;;;;;;;-128.00;-1.00;-1.00;97765;295;1003286;-36
2023/03/08 10:46:58;;;;;;;8.50;5.40;;;;;;;-128.00;-1.00;-1.00;97933;295;1003425;-30
2023/03/08 10:49:24;;;;;;;8.10;4.20;;;;;;;-128.00;-1.00;-1.00;97849;295;1003207;-34
2023/03/08 10:51:57;;;;;;;6.60;4.00;;;;;;;-128.00;-1.00;-1.00;97810;295;1002856;-34
2023/03/08 10:54:25;;;;;;;9.60;5.20;;;;;;;-128.00;-1.00;-1.00;97886;295;1003528;-29
2023/03/08 10:56:57;;;;;;;11.40;6.30;;;;;;;-128.00;-1.00;-1.00;97917;295;1003009;-33
2023/03/08 10:59:31;;;;;;;5.60;4.20;;;;;;;-128.00;-1.00;-1.00;97901;295;1003812;-33
2023/03/08 11:02:14;;;;;;;5.00;3.50;;;;;;;-128.00;-1.00;-1.00;97895;287;1003732;-32
2023/03/08 11:45:00;;;;;;;201.60;51.10;;;;;;;3.67;93.05;97826.49;100765;296;559359;-29
2023/03/08 11:47:37;;;;;;;235.60;54.10;;;;;;;3.66;93.36;97814.52;98745;284;3372409;-32
2023/03/08 11:50:21;;;;;;;557.10;214.20;;;;;;;3.60;93.20;97811.46;101147;295;22593;-30
2023/03/08 11:53:11;;;;;;;12.10;7.10;;;;;;;3.66;92.81;97809.54;101131;294;25459;-33
2023/03/08 11:55:59;;;;;;;77.70;18.90;;;;;;;3.63;93.70;97798.81;101213;295;22883;-31
2023/03/08 11:58:39;;;;;;;85.30;21.60;;;;;;;3.85;93.45;97789.55;101013;288;25887;-34
2023/03/08 12:01:21;;;;;;;29.60;7.40;;;;;;;3.88;93.74;97787.81;101217;294;22573;-29
2023/03/08 12:03:52;;;;;;;9.00;4.70;;;;;;;4.02;93.09;97783.01;101129;294;22889;-29
2023/03/08 12:06:32;;;;;;;9.20;4.70;;;;;;;4.03;92.51;97775.65;101174;295;24245;-33
2023/03/08 12:09:04;;;;;;;8.80;4.60;;;;;;;4.14;94.28;97778.34;101160;294;22593;-29
2023/03/08 12:11:32;;;;;;;25.70;6.90;;;;;;;4.35;93.19;97777.46;101270;294;25454;-34
2023/03/08 12:14:12;;;;;;;75.70;26.20;;;;;;;4.51;92.46;97777.85;101066;298;24180;-28
2023/03/08 12:16:51;;;;;;;77.00;29.30;;;;;;;4.67;92.18;97772.92;101059;294;26983;-31
2023/03/08 12:19:49;;;;;;;52.80;22.80;;;;;;;4.75;91.44;97770.52;101109;294;25775;-39
2023/03/08 12:22:34;;;;;;;19.30;11.00;;;;;;;4.77;90.21;97770.82;101157;295;24060;-33
2023/03/08 12:25:25;;;;;;;21.00;10.80;;;;;;;4.73;90.07;97765.70;101030;295;22612;-33
2023/03/08 12:27:59;;;;;;;22.40;9.90;;;;;;;4.87;90.36;97760.79;101091;295;24072;-32
2023/03/08 12:30:45;;;;;;;9.70;7.30;;;;;;;4.96;90.23;97754.19;101034;284;25318;-34
2023/03/08 12:33:12;;;;;;;12.70;7.10;;;;;;;5.10;89.45;97752.73;101081;294;22574;-30
2023/03/08 12:35:49;;;;;;;16.90;11.10;;;;;;;5.24;89.83;97746.45;101129;295;24356;-29
2023/03/08 12:38:36;;;;;;;19.50;12.60;;;;;;;5.44;89.10;97737.98;101144;295;22879;-29
2023/03/08 12:41:02;;;;;;;10.40;7.00;;;;;;;5.54;88.90;97733.08;101086;284;24176;-30
2023/03/08 12:43:30;;;;;;;9.00;5.70;;;;;;;5.51;87.85;97731.94;101141;295;24120;-29
2023/03/08 12:46:06;;;;;;;5.80;4.90;;;;;;;5.66;87.60;97730.66;101167;295;25649;-32
2023/03/08 12:48:38;;;;;;;6.40;4.70;;;;;;;5.64;86.62;97730.20;101106;295;24043;-31
2023/03/08 12:51:19;;;;;;;5.80;5.10;;;;;;;5.55;83.64;97728.90;101108;295;22908;-33
2023/03/08 12:53:58;;;;;;;10.00;5.40;;;;;;;5.56;85.68;97724.23;101054;295;25452;-31
2023/03/08 12:56:48;;;;;;;7.60;5.50;;;;;;;5.77;85.56;97727.98;101070;295;22673;-29